Time,TemperatureF,DewpointF,PressureIn,WindDirection,WindDirectionDegrees,WindSpeedMPH,WindSpeedGustMPH,Humidity,HourlyPrecipIn,Conditions,Clouds,dailyrainin,SoftwareType,DateUTC
2013-03-03 00:01:00,38.0,37.0,30.05,SSE,160,0.0,-999.0,98,-99.99,,,-99.99,,2013-03-03 08:01:00,
2013-03-03 00:11:00,38.0,37.0,30.05,SSE,160,0.0,-999.0,98,-99.99,,,-99.99,,2013-03-03 08:11:00,
2013-03-03 00:21:00,38.0,37.0,30.05,SSE,160,0.0,-999.0,98,-99.99,,,-99.99,,2013-03-03 08:21:00,
2013-03-03 00:31:00,38.0,37.0,30.04,SW,235,0.0,-999.0,97,-99.99,,,-99.99,,2013-03-03 08:31:00,
2013-03-03 00:41:00,38.0,37.0,30.04,SW,235,0.0,-999.0,97,-99.99,,,-99.99,,2013-03-03 08:41:00,
2013-03-03 00:53:00,39.0,38.0,30.03,SSW,212,1.0,-999.0,98,-99.99,,,-99.99,,2013-03-03 08:53:00,
2013-03-03 01:01:00,39.0,38.0,30.03,SSW,212,0.0,-999.0,97,-99.99,,,-99.99,,2013-03-03 09:01:00,
2013-03-03 01:11:00,39.0,38.0,30.03,SSW,212,0.0,-999.0,97,-99.99,,,-99.99,,2013-03-03 09:11:00,
2013-03-03 01:21:00,38.0,37.0,30.02,SSW,212,0.0,-999.0,97,-99.99,,,-99.99,,2013-03-03 09:21:00,
2013-03-03 01:32:00,40.0,39.0,30.02,SSW,201,2.0,-999.0,98,-99.99,,,-99.99,,2013-03-03 09:32:00,
2013-03-03 01:41:00,40.0,39.0,30.02,SSW,201,2.0,-999.0,98,-99.99,,,-99.99,,2013-03-03 09:41:00,
2013-03-03 01:51:00,40.0,39.0,30.01,SW,233,2.0,-999.0,98,-99.99,,,-99.99,,2013-03-03 09:51:00,
2013-03-03 02:01:00,40.0,39.0,30.01,SW,220,2.0,-999.0,97,-99.99,,,-99.99,,2013-03-03 10:01:00,
2013-03-03 02:11:00,40.0,39.0,30.01,SW,220,2.0,-999.0,97,-99.99,,,-99.99,,2013-03-03 10:11:00,
2013-03-03 02:21:00,40.0,39.0,30.00,SSW,211,2.0,-999.0,96,-99.99,,,-99.99,,2013-03-03 10:21:00,
2013-03-03 02:31:00,39.0,38.0,30.00,SW,228,0.0,-999.0,95,-99.99,,,-99.99,,2013-03-03 10:31:00,
2013-03-03 02:41:00,39.0,38.0,30.00,SW,228,0.0,-999.0,95,-99.99,,,-99.99,,2013-03-03 10:41:00,
2013-03-03 02:51:00,39.0,38.0,30.00,West,277,3.0,-999.0,95,-99.99,,,-99.99,,2013-03-03 10:51:00,
2013-03-03 03:01:00,39.0,38.0,30.00,West,277,0.0,-999.0,96,-99.99,,,-99.99,,2013-03-03 11:01:00,
2013-03-03 03:11:00,39.0,38.0,30.00,West,277,0.0,-999.0,96,-99.99,,,-99.99,,2013-03-03 11:11:00,
2013-03-03 03:21:00,39.0,38.0,29.99,WNW,282,3.0,-999.0,95,-99.99,,,-99.99,,2013-03-03 11:21:00,
2013-03-03 03:31:00,38.0,37.0,29.99,WNW,296,6.0,-999.0,95,-99.99,,,-99.99,,2013-03-03 11:31:00,
2013-03-03 03:41:00,38.0,37.0,29.99,WNW,296,6.0,-999.0,95,-99.99,,,-99.99,,2013-03-03 11:41:00,
2013-03-03 03:52:00,37.0,35.0,30.01,West,276,9.0,-999.0,94,-99.99,,,-99.99,,2013-03-03 11:52:00,
2013-03-03 04:01:00,34.0,32.0,30.03,WNW,293,14.0,-999.0,94,-99.99,,,-99.99,,2013-03-03 12:01:00,
2013-03-03 04:11:00,34.0,32.0,30.03,WNW,293,14.0,-999.0,94,-99.99,,,-99.99,,2013-03-03 12:11:00,
2013-03-03 04:21:00,32.0,31.0,30.05,WNW,294,14.0,-999.0,96,-99.99,,,-99.99,,2013-03-03 12:21:00,
2013-03-03 04:32:00,32.0,31.0,30.05,WNW,303,11.0,-999.0,96,-99.99,,,-99.99,,2013-03-03 12:32:00,
2013-03-03 04:42:00,32.0,31.0,30.05,WNW,303,11.0,-999.0,96,-99.99,,,-99.99,,2013-03-03 12:42:00,
2013-03-03 04:52:00,32.0,31.0,30.06,WNW,285,8.0,-999.0,97,-99.99,,,-99.99,,2013-03-03 12:52:00,
2013-03-03 05:01:00,31.0,30.0,30.07,West,279,6.0,-999.0,97,-99.99,,,-99.99,,2013-03-03 13:01:00,
2013-03-03 05:11:00,31.0,30.0,30.07,West,279,6.0,-999.0,97,-99.99,,,-99.99,,2013-03-03 13:11:00,
2013-03-03 05:21:00,31.0,30.0,30.07,West,269,6.0,-999.0,97,-99.99,,,-99.99,,2013-03-03 13:21:00,
2013-03-03 05:31:00,31.0,30.0,30.07,West,278,6.0,-999.0,96,-99.99,,,-99.99,,2013-03-03 13:31:00,
2013-03-03 05:41:00,31.0,30.0,30.07,West,278,6.0,-999.0,96,-99.99,,,-99.99,,2013-03-03 13:41:00,
2013-03-03 05:51:00,31.0,30.0,30.08,WNW,298,3.0,-999.0,96,-99.99,,,-99.99,,2013-03-03 13:51:00,
2013-03-03 06:01:00,31.0,30.0,30.08,WNW,298,0.0,-999.0,96,-99.99,,,-99.99,,2013-03-03 14:01:00,
2013-03-03 06:11:00,31.0,30.0,30.08,WNW,298,0.0,-999.0,96,-99.99,,,-99.99,,2013-03-03 14:11:00,
2013-03-03 06:21:00,30.0,29.0,30.08,WNW,298,0.0,-999.0,95,-99.99,,,-99.99,,2013-03-03 14:21:00,
2013-03-03 06:31:00,30.0,28.0,30.09,SW,233,2.0,-999.0,93,-99.99,,,-99.99,,2013-03-03 14:31:00,
2013-03-03 06:42:00,30.0,28.0,30.09,SW,233,2.0,-999.0,93,-99.99,,,-99.99,,2013-03-03 14:42:00,
2013-03-03 06:52:00,29.0,26.0,30.09,West,281,4.0,-999.0,90,-99.99,,,-99.99,,2013-03-03 14:52:00,
2013-03-03 07:01:00,29.0,26.0,30.10,WNW,298,3.0,-999.0,90,-99.99,,,-99.99,,2013-03-03 15:01:00,
2013-03-03 07:11:00,29.0,26.0,30.10,WNW,298,3.0,-999.0,90,-99.99,,,-99.99,,2013-03-03 15:11:00,
2013-03-03 07:22:00,30.0,26.0,30.10,WNW,284,7.0,-999.0,85,-99.99,,,-99.99,,2013-03-03 15:22:00,
2013-03-03 07:31:00,29.0,25.0,30.10,West,275,5.0,-999.0,84,-99.99,,,-99.99,,2013-03-03 15:31:00,
2013-03-03 07:42:00,29.0,25.0,30.10,West,275,5.0,-999.0,84,-99.99,,,-99.99,,2013-03-03 15:42:00,
2013-03-03 07:51:00,29.0,25.0,30.11,WNW,292,4.0,-999.0,85,-99.99,,,-99.99,,2013-03-03 15:51:00,
2013-03-03 08:01:00,30.0,25.0,30.11,WNW,296,4.0,-999.0,83,-99.99,,,-99.99,,2013-03-03 16:01:00,
2013-03-03 08:11:00,30.0,25.0,30.11,WNW,296,4.0,-999.0,83,-99.99,,,-99.99,,2013-03-03 16:11:00,
2013-03-03 08:21:00,30.0,25.0,30.11,SW,231,6.0,-999.0,83,-99.99,,,-99.99,,2013-03-03 16:21:00,
2013-03-03 08:31:00,30.0,25.0,30.11,WNW,284,5.0,-999.0,83,-99.99,,,-99.99,,2013-03-03 16:31:00,
2013-03-03 08:41:00,30.0,25.0,30.11,WNW,284,5.0,-999.0,83,-99.99,,,-99.99,,2013-03-03 16:41:00,
2013-03-03 08:51:00,31.0,27.0,30.11,WNW,296,5.0,-999.0,84,-99.99,,,-99.99,,2013-03-03 16:51:00,
2013-03-03 09:01:00,31.0,26.0,30.12,WNW,293,4.0,-999.0,81,-99.99,,,-99.99,,2013-03-03 17:01:00,
2013-03-03 09:11:00,32.0,27.0,30.13,NW,319,4.0,-999.0,81,-99.99,,,-99.99,,2013-03-03 17:11:00,
2013-03-03 09:21:00,32.0,27.0,30.13,NW,319,4.0,-999.0,81,-99.99,,,-99.99,,2013-03-03 17:21:00,
2013-03-03 09:32:00,32.0,26.0,30.13,WNW,297,4.0,-999.0,79,-99.99,,,-99.99,,2013-03-03 17:32:00,
2013-03-03 09:41:00,32.0,26.0,30.13,WNW,297,4.0,-999.0,79,-99.99,,,-99.99,,2013-03-03 17:41:00,
2013-03-03 09:52:00,32.0,26.0,30.13,WNW,290,3.0,-999.0,79,-99.99,,,-99.99,,2013-03-03 17:52:00,
2013-03-03 10:01:00,32.0,26.0,30.13,West,271,7.0,-999.0,78,-99.99,,,-99.99,,2013-03-03 18:01:00,
2013-03-03 10:11:00,32.0,26.0,30.13,West,271,7.0,-999.0,78,-99.99,,,-99.99,,2013-03-03 18:11:00,
2013-03-03 10:21:00,33.0,27.0,30.13,WSW,249,6.0,-999.0,77,-99.99,,,-99.99,,2013-03-03 18:21:00,
2013-03-03 10:31:00,34.0,27.0,30.14,WNW,288,7.0,-999.0,76,-99.99,,,-99.99,,2013-03-03 18:31:00,
2013-03-03 10:41:00,34.0,27.0,30.14,WNW,288,7.0,-999.0,76,-99.99,,,-99.99,,2013-03-03 18:41:00,
2013-03-03 10:52:00,34.0,26.0,30.13,WNW,286,7.0,-999.0,73,-99.99,,,-99.99,,2013-03-03 18:52:00,
2013-03-03 11:01:00,33.0,25.0,30.12,West,278,7.0,-999.0,72,-99.99,,,-99.99,,2013-03-03 19:01:00,
2013-03-03 11:11:00,33.0,25.0,30.12,West,278,7.0,-999.0,72,-99.99,,,-99.99,,2013-03-03 19:11:00,
2013-03-03 11:21:00,34.0,25.0,30.12,West,277,8.0,-999.0,69,-99.99,,,-99.99,,2013-03-03 19:21:00,
2013-03-03 11:31:00,35.0,27.0,30.13,West,279,8.0,-999.0,71,-99.99,,,-99.99,,2013-03-03 19:31:00,
2013-03-03 11:42:00,35.0,27.0,30.13,West,279,8.0,-999.0,71,-99.99,,,-99.99,,2013-03-03 19:42:00,
2013-03-03 11:51:00,34.0,25.0,30.13,NW,321,10.0,-999.0,70,-99.99,,,-99.99,,2013-03-03 19:51:00,
2013-03-03 12:01:00,35.0,24.0,30.12,WNW,293,7.0,-999.0,65,-99.99,,,-99.99,,2013-03-03 20:01:00,
2013-03-03 12:11:00,35.0,24.0,30.12,WNW,293,7.0,-999.0,65,-99.99,,,-99.99,,2013-03-03 20:11:00,
2013-03-03 12:21:00,35.0,26.0,30.12,West,273,6.0,-999.0,69,-99.99,,,-99.99,,2013-03-03 20:21:00,
2013-03-03 12:32:00,34.0,25.0,30.12,WNW,294,7.0,-999.0,69,-99.99,,,-99.99,,2013-03-03 20:32:00,
2013-03-03 12:42:00,34.0,25.0,30.12,WNW,294,7.0,-999.0,69,-99.99,,,-99.99,,2013-03-03 20:42:00,
2013-03-03 12:52:00,35.0,26.0,30.12,West,265,8.0,-999.0,70,-99.99,,,-99.99,,2013-03-03 20:52:00,
2013-03-03 13:01:00,36.0,26.0,30.12,WNW,284,5.0,-999.0,67,-99.99,,,-99.99,,2013-03-03 21:01:00,
2013-03-03 13:11:00,36.0,26.0,30.12,WNW,284,5.0,-999.0,67,-99.99,,,-99.99,,2013-03-03 21:11:00,
2013-03-03 13:21:00,36.0,24.0,30.12,WNW,282,8.0,-999.0,62,-99.99,,,-99.99,,2013-03-03 21:21:00,
2013-03-03 13:31:00,36.0,24.0,30.12,WNW,300,7.0,-999.0,62,-99.99,,,-99.99,,2013-03-03 21:31:00,
2013-03-03 13:41:00,36.0,24.0,30.12,WNW,300,7.0,-999.0,62,-99.99,,,-99.99,,2013-03-03 21:41:00,
2013-03-03 13:52:00,36.0,25.0,30.12,WSW,258,6.0,-999.0,64,-99.99,,,-99.99,,2013-03-03 21:52:00,
2013-03-03 14:01:00,36.0,24.0,30.13,West,269,7.0,-999.0,62,-99.99,,,-99.99,,2013-03-03 22:01:00,
2013-03-03 14:11:00,36.0,24.0,30.13,West,269,7.0,-999.0,62,-99.99,,,-99.99,,2013-03-03 22:11:00,
2013-03-03 14:21:00,36.0,25.0,30.13,West,266,7.0,-999.0,64,-99.99,,,-99.99,,2013-03-03 22:21:00,
2013-03-03 14:31:00,36.0,25.0,30.14,WNW,282,5.0,-999.0,64,-99.99,,,-99.99,,2013-03-03 22:31:00,
2013-03-03 14:41:00,36.0,25.0,30.14,WNW,282,5.0,-999.0,64,-99.99,,,-99.99,,2013-03-03 22:41:00,
2013-03-03 14:52:00,37.0,25.0,30.13,WNW,286,5.0,-999.0,62,-99.99,,,-99.99,,2013-03-03 22:52:00,
2013-03-03 15:01:00,36.0,25.0,30.14,West,281,7.0,-999.0,63,-99.99,,,-99.99,,2013-03-03 23:01:00,
2013-03-03 15:11:00,36.0,25.0,30.14,West,281,7.0,-999.0,63,-99.99,,,-99.99,,2013-03-03 23:11:00,
2013-03-03 15:21:00,36.0,24.0,30.14,NW,308,7.0,-999.0,62,-99.99,,,-99.99,,2013-03-03 23:21:00,
2013-03-03 15:31:00,36.0,25.0,30.14,West,277,7.0,-999.0,64,-99.99,,,-99.99,,2013-03-03 23:31:00,
2013-03-03 15:41:00,36.0,25.0,30.14,West,277,7.0,-999.0,64,-99.99,,,-99.99,,2013-03-03 23:41:00,
2013-03-03 15:52:00,36.0,23.0,30.15,WNW,289,6.0,-999.0,60,-99.99,,,-99.99,,2013-03-03 23:52:00,
2013-03-03 16:01:00,36.0,24.0,30.15,West,269,5.0,-999.0,61,-99.99,,,-99.99,,2013-03-04 00:01:00,
2013-03-03 16:11:00,36.0,24.0,30.15,West,269,5.0,-999.0,61,-99.99,,,-99.99,,2013-03-04 00:11:00,
2013-03-03 16:21:00,37.0,25.0,30.15,WSW,248,8.0,-999.0,61,-99.99,,,-99.99,,2013-03-04 00:21:00,
2013-03-03 16:32:00,37.0,24.0,30.16,SSW,213,5.0,-999.0,59,-99.99,,,-99.99,,2013-03-04 00:32:00,
2013-03-03 16:41:00,37.0,24.0,30.16,SSW,213,5.0,-999.0,59,-99.99,,,-99.99,,2013-03-04 00:41:00,
2013-03-03 16:52:00,35.0,24.0,30.16,West,267,4.0,-999.0,63,-99.99,,,-99.99,,2013-03-04 00:52:00,
2013-03-03 17:01:00,35.0,24.0,30.16,WNW,285,3.0,-999.0,63,-99.99,,,-99.99,,2013-03-04 01:01:00,
2013-03-03 17:11:00,35.0,24.0,30.16,WNW,285,3.0,-999.0,63,-99.99,,,-99.99,,2013-03-04 01:11:00,
2013-03-03 17:21:00,35.0,23.0,30.17,SW,234,4.0,-999.0,62,-99.99,,,-99.99,,2013-03-04 01:21:00,
2013-03-03 17:31:00,35.0,24.0,30.17,West,278,3.0,-999.0,64,-99.99,,,-99.99,,2013-03-04 01:31:00,
2013-03-03 17:42:00,35.0,24.0,30.17,West,278,3.0,-999.0,64,-99.99,,,-99.99,,2013-03-04 01:42:00,
2013-03-03 17:52:00,34.0,23.0,30.17,West,272,2.0,-999.0,65,-99.99,,,-99.99,,2013-03-04 01:52:00,
2013-03-03 18:01:00,34.0,23.0,30.17,West,272,2.0,-999.0,65,-99.99,,,-99.99,,2013-03-04 02:01:00,
2013-03-03 18:11:00,34.0,23.0,30.17,West,272,2.0,-999.0,65,-99.99,,,-99.99,,2013-03-04 02:11:00,
2013-03-03 18:22:00,32.0,23.0,30.18,West,272,0.0,-999.0,69,-99.99,,,-99.99,,2013-03-04 02:22:00,
2013-03-03 18:31:00,31.0,24.0,30.19,West,272,0.0,-999.0,75,-99.99,,,-99.99,,2013-03-04 02:31:00,
2013-03-03 18:42:00,31.0,24.0,30.19,West,272,0.0,-999.0,75,-99.99,,,-99.99,,2013-03-04 02:42:00,
2013-03-03 18:52:00,30.0,23.0,30.19,West,272,0.0,-999.0,74,-99.99,,,-99.99,,2013-03-04 02:52:00,
2013-03-03 19:01:00,30.0,23.0,30.19,West,272,0.0,-999.0,75,-99.99,,,-99.99,,2013-03-04 03:01:00,
2013-03-03 19:11:00,30.0,23.0,30.19,West,272,0.0,-999.0,75,-99.99,,,-99.99,,2013-03-04 03:11:00,
2013-03-03 19:21:00,29.0,24.0,30.19,West,272,0.0,-999.0,81,-99.99,,,-99.99,,2013-03-04 03:21:00,
2013-03-03 19:31:00,28.0,23.0,30.20,West,272,0.0,-999.0,82,-99.99,,,-99.99,,2013-03-04 03:31:00,
2013-03-03 19:41:00,28.0,24.0,30.21,West,272,0.0,-999.0,84,-99.99,,,-99.99,,2013-03-04 03:41:00,
2013-03-03 19:52:00,28.0,24.0,30.21,West,272,0.0,-999.0,84,-99.99,,,-99.99,,2013-03-04 03:52:00,
2013-03-03 20:01:00,27.0,23.0,30.21,West,272,0.0,-999.0,85,-99.99,,,-99.99,,2013-03-04 04:01:00,
2013-03-03 20:11:00,27.0,23.0,30.21,West,272,0.0,-999.0,85,-99.99,,,-99.99,,2013-03-04 04:11:00,
2013-03-03 20:21:00,27.0,24.0,30.21,West,272,0.0,-999.0,87,-99.99,,,-99.99,,2013-03-04 04:21:00,
2013-03-03 20:31:00,27.0,24.0,30.21,West,272,0.0,-999.0,87,-99.99,,,-99.99,,2013-03-04 04:31:00,
2013-03-03 20:41:00,27.0,24.0,30.21,West,272,0.0,-999.0,87,-99.99,,,-99.99,,2013-03-04 04:41:00,
2013-03-03 20:52:00,27.0,24.0,30.21,West,272,0.0,-999.0,88,-99.99,,,-99.99,,2013-03-04 04:52:00,
2013-03-03 21:01:00,26.0,23.0,30.22,West,272,0.0,-999.0,87,-99.99,,,-99.99,,2013-03-04 05:01:00,
2013-03-03 21:11:00,26.0,23.0,30.22,West,272,0.0,-999.0,87,-99.99,,,-99.99,,2013-03-04 05:11:00,
2013-03-03 21:22:00,26.0,23.0,30.22,West,272,0.0,-999.0,88,-99.99,,,-99.99,,2013-03-04 05:22:00,
2013-03-03 21:31:00,25.0,22.0,30.22,West,272,0.0,-999.0,89,-99.99,,,-99.99,,2013-03-04 05:31:00,
2013-03-03 21:42:00,25.0,22.0,30.22,West,272,0.0,-999.0,89,-99.99,,,-99.99,,2013-03-04 05:42:00,
2013-03-03 21:52:00,25.0,22.0,30.22,West,272,0.0,-999.0,89,-99.99,,,-99.99,,2013-03-04 05:52:00,
2013-03-03 22:01:00,25.0,23.0,30.23,West,272,0.0,-999.0,91,-99.99,,,-99.99,,2013-03-04 06:01:00,
2013-03-03 22:11:00,25.0,23.0,30.23,West,272,0.0,-999.0,91,-99.99,,,-99.99,,2013-03-04 06:11:00,
2013-03-03 22:21:00,24.0,22.0,30.23,West,272,0.0,-999.0,90,-99.99,,,-99.99,,2013-03-04 06:21:00,
2013-03-03 22:31:00,24.0,22.0,30.24,West,272,0.0,-999.0,91,-99.99,,,-99.99,,2013-03-04 06:31:00,
2013-03-03 22:42:00,24.0,22.0,30.24,West,272,0.0,-999.0,91,-99.99,,,-99.99,,2013-03-04 06:42:00,
2013-03-03 22:52:00,24.0,22.0,30.24,West,272,0.0,-999.0,92,-99.99,,,-99.99,,2013-03-04 06:52:00,
2013-03-03 23:01:00,23.0,21.0,30.24,West,272,0.0,-999.0,92,-99.99,,,-99.99,,2013-03-04 07:01:00,
2013-03-03 23:11:00,23.0,21.0,30.24,West,272,0.0,-999.0,92,-99.99,,,-99.99,,2013-03-04 07:11:00,
2013-03-03 23:21:00,23.0,21.0,30.25,West,272,0.0,-999.0,93,-99.99,,,-99.99,,2013-03-04 07:21:00,
2013-03-03 23:31:00,23.0,21.0,30.24,West,272,0.0,-999.0,92,-99.99,,,-99.99,,2013-03-04 07:31:00,
2013-03-03 23:41:00,23.0,21.0,30.24,West,272,0.0,-999.0,92,-99.99,,,-99.99,,2013-03-04 07:41:00,
2013-03-03 23:52:00,22.0,20.0,30.25,West,272,0.0,-999.0,93,-99.99,,,-99.99,,2013-03-04 07:52:00,